createdAt,value
2017-09-20T00:07:38.964Z,97301.05
2017-09-20T00:10:05.709Z,97303.67
2017-09-20T00:15:27.661Z,97296.75
2017-09-20T00:17:54.654Z,97297.58
2017-09-20T00:20:24.317Z,97293.72
2017-09-20T00:22:52.415Z,97297.59
2017-09-20T00:25:19.830Z,97290.45
2017-09-20T00:27:46.404Z,97294.85
2017-09-20T00:30:12.899Z,97294.02
2017-09-20T00:32:39.450Z,97291.91
2017-09-20T00:38:01.725Z,97285.55
2017-09-20T00:40:29.279Z,97288.67
2017-09-20T00:47:23.840Z,97283.36
2017-09-20T00:49:50.803Z,97287.02
2017-09-20T00:52:17.240Z,97287.15
2017-09-20T00:54:43.936Z,97283.46
2017-09-20T00:57:11.895Z,97288.55
2017-09-20T00:59:38.412Z,97291.20
2017-09-20T01:02:06.087Z,97287.06
2017-09-20T01:04:33.470Z,97286.41
2017-09-20T01:07:01.099Z,97282.13
2017-09-20T01:09:29.929Z,97280.75
2017-09-20T01:11:56.636Z,97284.50
2017-09-20T01:14:34.756Z,97286.53
2017-09-20T01:17:04.222Z,97283.91
2017-09-20T01:19:30.756Z,97284.77
2017-09-20T01:25:18.447Z,97285.21
2017-09-20T01:27:44.985Z,97282.67
2017-09-20T01:30:12.594Z,97276.20
2017-09-20T01:35:33.763Z,97290.30
2017-09-20T01:38:01.339Z,97281.48
2017-09-20T01:43:01.337Z,97283.98
2017-09-20T01:45:28.885Z,97288.43
2017-09-20T01:47:55.453Z,97291.02
2017-09-20T01:50:23.007Z,97287.88
2017-09-20T01:52:49.900Z,97287.65
2017-09-20T01:55:21.716Z,97293.25
2017-09-20T01:57:55.148Z,97285.95
2017-09-20T02:00:22.735Z,97290.56
2017-09-20T02:02:49.827Z,97284.64
2017-09-20T02:05:16.564Z,97284.33
2017-09-20T02:07:43.084Z,97289.08
2017-09-20T02:10:09.864Z,97281.47
2017-09-20T02:12:36.471Z,97283.94
2017-09-20T02:15:03.003Z,97287.83
2017-09-20T02:17:30.917Z,97289.29
2017-09-20T02:19:57.603Z,97284.50
2017-09-20T02:22:24.252Z,97285.81
2017-09-20T02:24:51.574Z,97284.62
2017-09-20T02:27:18.096Z,97284.98
2017-09-20T02:29:45.533Z,97286.94
2017-09-20T02:32:19.520Z,97286.53
2017-09-20T02:34:46.504Z,97291.72
2017-09-20T02:37:13.247Z,97293.39
2017-09-20T02:39:39.620Z,97298.92
2017-09-20T02:45:03.139Z,97292.53
2017-09-20T02:47:29.856Z,97299.16
2017-09-20T02:49:56.612Z,97300.65
2017-09-20T02:52:23.021Z,97293.60
2017-09-20T02:54:50.548Z,97295.68
2017-09-20T02:57:17.139Z,97296.73
2017-09-20T02:59:44.552Z,97290.80
2017-09-20T03:14:27.816Z,97299.39
2017-09-20T03:16:55.610Z,97301.36
2017-09-20T03:19:22.017Z,97298.95
2017-09-20T03:21:48.693Z,97300.39
2017-09-20T03:24:15.626Z,97299.09
2017-09-20T03:26:42.369Z,97304.34
2017-09-20T03:29:09.160Z,97305.55
2017-09-20T03:31:38.628Z,97298.51
2017-09-20T03:34:05.269Z,97298.24
2017-09-20T03:36:31.859Z,97304.76
2017-09-20T03:38:58.473Z,97306.23
2017-09-20T03:41:28.220Z,97290.75
2017-09-20T03:43:54.764Z,97304.16
2017-09-20T03:46:22.303Z,97304.19
2017-09-20T03:48:49.939Z,97306.69
2017-09-20T03:51:16.512Z,97298.45
2017-09-20T03:53:43.181Z,97301.24
2017-09-20T03:56:09.932Z,97310.05
2017-09-20T03:58:36.479Z,97303.89
2017-09-20T04:01:03.031Z,97311.27
2017-09-20T04:03:30.065Z,97311.16
2017-09-20T04:05:58.536Z,97314.81
2017-09-20T04:08:25.968Z,97312.94
2017-09-20T04:52:25.196Z,97345.20
2017-09-20T05:06:26.044Z,97350.73
2017-09-20T05:08:52.686Z,97352.62
2017-09-20T05:11:19.303Z,97356.66
2017-09-20T05:13:46.878Z,97354.65
2017-09-20T05:16:13.381Z,97357.01
2017-09-20T06:22:51.108Z,97382.04
2017-09-20T06:25:17.551Z,97383.34
2017-09-20T06:27:45.097Z,97383.62
2017-09-20T06:30:11.755Z,97386.66
2017-09-20T06:32:38.586Z,97387.73
2017-09-20T06:35:05.416Z,97390.56
2017-09-20T06:37:33.011Z,97388.30
2017-09-20T06:39:59.640Z,97395.11
2017-09-20T06:42:26.355Z,97396.13
2017-09-20T06:44:52.916Z,97395.67
2017-09-20T07:00:44.425Z,97430.50
2017-09-20T07:05:53.465Z,97424.81
2017-09-20T07:08:21.780Z,97424.58
2017-09-20T07:10:48.303Z,97428.11
2017-09-20T07:13:15.832Z,97433.39
2017-09-20T07:15:42.232Z,97430.97
2017-09-20T07:18:11.847Z,97425.01
2017-09-20T07:20:38.440Z,97428.69
2017-09-20T07:23:07.251Z,97430.30
2017-09-20T07:25:36.463Z,97428.91
2017-09-20T07:30:57.888Z,97415.22
2017-09-20T07:33:25.608Z,97423.67
2017-09-20T07:35:52.395Z,97421.59
2017-09-20T07:38:18.960Z,97421.91
2017-09-20T07:40:45.378Z,97414.16
2017-09-20T07:46:06.512Z,97410.36
2017-09-20T07:48:33.159Z,97415.24
2017-09-20T07:50:59.835Z,97420.20
2017-09-20T07:53:27.345Z,97417.95
2017-09-20T07:55:53.984Z,97410.34
2017-09-20T07:58:20.633Z,97410.78
2017-09-20T08:00:47.220Z,97413.28
2017-09-20T08:03:15.009Z,97418.36
2017-09-20T08:05:41.667Z,97423.23
2017-09-20T08:11:03.499Z,97417.19
2017-09-20T08:13:30.143Z,97417.21
2017-09-20T08:15:56.874Z,97418.50
2017-09-20T08:18:23.533Z,97423.66
2017-09-20T08:20:50.168Z,97422.83
2017-09-20T08:23:16.930Z,97429.64
2017-09-20T08:25:43.599Z,97428.27
2017-09-20T08:28:11.009Z,97431.45
2017-09-20T08:30:37.752Z,97433.65
2017-09-20T08:33:04.510Z,97389.06
2017-09-20T08:35:30.932Z,97437.80
2017-09-20T08:37:57.511Z,97434.34
2017-09-20T08:40:27.856Z,97423.16
2017-09-20T08:42:55.196Z,97429.09
2017-09-20T08:45:22.818Z,97431.88
2017-09-20T08:47:49.404Z,97433.27
2017-09-20T08:50:16.349Z,97441.13
2017-09-20T08:52:42.948Z,97441.69
2017-09-20T08:55:09.321Z,97447.54
2017-09-20T08:57:36.091Z,97440.73
2017-09-20T09:00:02.747Z,97439.30
2017-09-20T09:02:30.148Z,97440.77
2017-09-20T09:04:56.939Z,97441.80
2017-09-20T09:07:23.563Z,97444.56
2017-09-20T09:09:50.153Z,97445.17
2017-09-20T09:12:17.588Z,97446.47
2017-09-20T09:14:44.332Z,97444.20
2017-09-20T09:17:10.935Z,97437.73
2017-09-20T09:19:38.456Z,97426.31
2017-09-20T09:25:44.628Z,97445.97
2017-09-20T09:28:12.091Z,97440.59
2017-09-20T09:30:41.647Z,97449.23
2017-09-20T09:33:08.328Z,97442.55
2017-09-20T09:35:36.264Z,97437.16
2017-09-20T09:38:02.941Z,97436.36
2017-09-20T09:40:30.331Z,97432.84
2017-09-20T09:42:56.958Z,97433.49
2017-09-20T09:48:20.095Z,97434.59
2017-09-20T09:50:50.802Z,97432.98
2017-09-20T09:53:17.423Z,97444.74
2017-09-20T09:55:44.149Z,97437.92
2017-09-20T09:58:11.028Z,97441.64
2017-09-20T10:00:37.817Z,97447.52
2017-09-20T10:03:04.507Z,97438.24
2017-09-20T10:05:31.084Z,97438.33
2017-09-20T10:10:59.868Z,97431.28
2017-09-20T10:13:29.524Z,97435.59
2017-09-20T10:15:56.243Z,97436.14
2017-09-20T10:18:22.653Z,97434.60
2017-09-20T10:20:50.260Z,97426.16
2017-09-20T10:23:16.652Z,97425.89
2017-09-20T10:25:45.184Z,97419.55
2017-09-20T10:28:13.884Z,97413.77
2017-09-20T10:30:40.693Z,97413.88
2017-09-20T10:33:07.787Z,97414.86
2017-09-20T10:35:34.283Z,97407.44
2017-09-20T10:38:00.968Z,97405.84
2017-09-20T10:40:29.860Z,97410.00
2017-09-20T10:42:57.877Z,97399.91
2017-09-20T10:45:27.402Z,97411.28
2017-09-20T10:47:54.077Z,97407.55
2017-09-20T10:50:22.700Z,97400.61
2017-09-20T10:52:50.203Z,97394.91
2017-09-20T10:55:16.954Z,97392.38
2017-09-20T10:57:44.289Z,97389.08
2017-09-20T11:00:11.083Z,97386.73
2017-09-20T11:02:39.828Z,97388.53
2017-09-20T11:05:06.637Z,97392.66
2017-09-20T11:07:33.404Z,97388.84
2017-09-20T11:09:59.970Z,97382.84
2017-09-20T11:12:26.679Z,97390.25
2017-09-20T11:14:53.315Z,97392.77
2017-09-20T11:17:19.941Z,97394.22
2017-09-20T11:19:46.690Z,97389.31
2017-09-20T11:22:13.279Z,97396.06
2017-09-20T11:24:42.017Z,97396.75
2017-09-20T11:27:09.441Z,97394.80
2017-09-20T11:29:36.847Z,97397.58
2017-09-20T11:32:04.307Z,97395.59
2017-09-20T11:34:31.766Z,97395.04
2017-09-20T11:36:59.239Z,97391.58
2017-09-20T11:39:26.619Z,97391.69
2017-09-20T11:41:54.112Z,97394.06
2017-09-20T11:44:20.622Z,97392.50
2017-09-20T11:46:47.381Z,97380.73
2017-09-20T11:49:14.129Z,97384.19
2017-09-20T11:51:41.156Z,97378.27
2017-09-20T11:54:07.700Z,97379.06
2017-09-20T11:56:34.285Z,97372.25
2017-09-20T11:59:02.032Z,97367.11
2017-09-20T12:01:32.476Z,97363.82
2017-09-20T12:03:59.976Z,97373.47
2017-09-20T12:06:26.685Z,97370.22
2017-09-20T12:08:54.017Z,97364.86
2017-09-20T12:11:20.518Z,97365.03
2017-09-20T12:13:48.345Z,97348.90
2017-09-20T12:16:15.095Z,97372.70
2017-09-20T12:18:51.996Z,97366.92
2017-09-20T12:21:18.668Z,97377.64
2017-09-20T12:23:45.350Z,97366.44
2017-09-20T12:26:12.078Z,97362.02
2017-09-20T12:28:39.173Z,97355.96
2017-09-20T12:31:05.925Z,97354.88
2017-09-20T12:33:32.731Z,97341.89
2017-09-20T12:35:59.531Z,97346.05
2017-09-20T12:38:26.937Z,97342.53
2017-09-20T12:40:53.710Z,97341.96
2017-09-20T12:47:47.799Z,97341.24
2017-09-20T12:50:14.446Z,97329.99
2017-09-20T12:52:41.180Z,97341.22
2017-09-20T12:55:07.712Z,97341.64
2017-09-20T12:57:34.303Z,97337.45
2017-09-20T13:00:01.679Z,97345.07
2017-09-20T13:02:28.311Z,97340.98
2017-09-20T13:04:55.718Z,97342.39
2017-09-20T13:07:22.268Z,97342.05
2017-09-20T13:09:52.850Z,97342.98
2017-09-20T13:12:19.264Z,97336.96
2017-09-20T13:18:00.966Z,97333.19
2017-09-20T13:20:27.573Z,97325.39
2017-09-20T13:22:54.886Z,97327.56
2017-09-20T13:25:21.440Z,97323.53
2017-09-20T13:27:50.515Z,97319.23
2017-09-20T13:30:17.980Z,97325.27
2017-09-20T13:32:44.371Z,97310.09
2017-09-20T13:35:11.600Z,97323.27
2017-09-20T13:37:39.134Z,97321.48
2017-09-20T13:40:06.544Z,97319.48
2017-09-20T13:42:33.351Z,97318.33
2017-09-20T13:47:55.694Z,97320.83
2017-09-20T13:50:22.704Z,97310.47
2017-09-20T13:52:49.389Z,97309.99
2017-09-20T13:55:16.335Z,97309.20
2017-09-20T13:57:43.880Z,97309.62
2017-09-20T14:00:28.128Z,97307.49
2017-09-20T14:02:56.706Z,97303.63
2017-09-20T14:05:23.338Z,97301.61
2017-09-20T14:07:50.800Z,97297.91
2017-09-20T14:10:17.646Z,97294.04
2017-09-20T14:12:44.492Z,97301.41
2017-09-20T14:15:11.312Z,97297.14
2017-09-20T14:17:38.095Z,97289.98
2017-09-20T14:20:05.697Z,97294.92
2017-09-20T14:22:32.376Z,97289.50
2017-09-20T14:24:58.871Z,97293.34
2017-09-20T14:27:25.440Z,97290.32
2017-09-20T14:29:52.042Z,97293.55
2017-09-20T14:32:19.050Z,97289.75
2017-09-20T14:34:45.724Z,97300.57
2017-09-20T14:37:12.704Z,97299.67
2017-09-20T14:39:40.225Z,97294.31
2017-09-20T14:42:06.777Z,97300.91
2017-09-20T14:44:33.539Z,97295.33
2017-09-20T14:47:00.339Z,97293.84
2017-09-20T14:49:27.013Z,97298.96
2017-09-20T14:51:53.588Z,97278.78
2017-09-20T14:54:21.030Z,97297.86
2017-09-20T14:56:48.564Z,97301.72
2017-09-20T14:59:16.435Z,97297.36
2017-09-20T15:01:43.096Z,97294.41
2017-09-20T15:04:09.672Z,97295.67
2017-09-20T15:06:36.067Z,97294.06
2017-09-20T15:09:03.040Z,97295.30
2017-09-20T15:11:29.503Z,97288.23
2017-09-20T15:13:56.798Z,97292.45
2017-09-20T15:16:38.772Z,97291.98
2017-09-20T15:31:27.629Z,97289.52
2017-09-20T15:33:57.150Z,97284.80
2017-09-20T15:36:23.858Z,97288.50
2017-09-20T15:38:50.604Z,97280.58
2017-09-20T15:41:17.216Z,97291.41
2017-09-20T15:43:44.625Z,97290.47
2017-09-20T15:46:22.296Z,97291.48
2017-09-20T15:48:48.999Z,97293.77
2017-09-20T15:53:53.477Z,97288.09
2017-09-20T15:56:20.353Z,97288.09
2017-09-20T15:58:47.731Z,97294.52
2017-09-20T16:01:14.377Z,97295.48
2017-09-20T16:03:41.169Z,97292.71
2017-09-20T16:06:08.660Z,97291.47
2017-09-20T16:08:35.163Z,97286.91
2017-09-20T16:11:02.601Z,97289.61
2017-09-20T16:13:29.121Z,97286.36
2017-09-20T16:15:55.637Z,97285.48
2017-09-20T16:18:22.892Z,97283.75
2017-09-20T16:20:49.332Z,97279.37
2017-09-20T16:23:15.877Z,97286.73
2017-09-20T16:25:42.452Z,97283.38
2017-09-20T16:28:12.016Z,97284.00
2017-09-20T16:30:48.577Z,97283.87
2017-09-20T16:33:17.411Z,97286.73
2017-09-20T16:35:44.820Z,97289.16
2017-09-20T16:38:11.473Z,97258.84
2017-09-20T16:40:37.840Z,97289.48
2017-09-20T16:43:05.021Z,97297.67
2017-09-20T16:45:32.045Z,97286.62
2017-09-20T17:06:25.100Z,97313.01
2017-09-20T17:08:52.544Z,97308.85
2017-09-20T17:11:19.276Z,97318.72
2017-09-20T17:13:45.663Z,97315.28
2017-09-20T17:16:12.339Z,97317.20
2017-09-20T17:18:39.908Z,97316.55
2017-09-20T17:21:09.618Z,97315.00
2017-09-20T17:23:36.935Z,97322.06
2017-09-20T17:26:05.621Z,97321.23
2017-09-20T17:28:32.272Z,97317.13
2017-09-20T17:31:03.271Z,97326.47
2017-09-20T17:33:32.101Z,97326.27
2017-09-20T17:38:53.004Z,97329.01
2017-09-20T17:41:19.431Z,97328.59
2017-09-20T17:43:46.193Z,97326.09
2017-09-20T17:46:12.977Z,97331.09
2017-09-20T17:48:41.232Z,97334.19
2017-09-20T17:51:08.236Z,97331.00
2017-09-20T17:53:35.327Z,97341.53
2017-09-20T17:56:02.772Z,97337.02
2017-09-20T17:58:29.431Z,97336.09
2017-09-20T18:00:59.145Z,97345.68
2017-09-20T18:03:25.876Z,97347.44
2017-09-20T18:05:53.476Z,97363.00
2017-09-20T18:10:53.119Z,97361.18
2017-09-20T18:13:22.193Z,97361.34
2017-09-20T18:15:49.744Z,97334.91
2017-09-20T18:18:16.352Z,97369.92
2017-09-20T18:20:44.483Z,97369.27
2017-09-20T18:23:10.901Z,97371.67
2017-09-20T18:25:37.823Z,97365.05
2017-09-20T18:28:05.244Z,97374.97
2017-09-20T18:30:37.034Z,97372.37
2017-09-20T19:10:27.455Z,97383.12
2017-09-20T19:12:54.215Z,97390.72
2017-09-20T19:15:20.703Z,97401.03
2017-09-20T19:17:47.292Z,97391.32
2017-09-20T19:20:15.579Z,97396.58
2017-09-20T19:22:42.243Z,97388.25
2017-09-20T19:25:08.676Z,97392.89
2017-09-20T19:27:35.343Z,97388.81
2017-09-20T19:32:56.621Z,97389.50
2017-09-20T19:35:24.016Z,97388.60
2017-09-20T19:37:50.628Z,97390.75
2017-09-20T19:40:17.060Z,97386.39
2017-09-20T19:42:45.509Z,97390.01
2017-09-20T19:45:13.019Z,97398.62
2017-09-20T19:47:39.489Z,97398.27
2017-09-20T19:50:06.969Z,97392.06
2017-09-20T19:55:28.331Z,97390.33
2017-09-20T19:57:56.031Z,97391.66
2017-09-20T20:00:22.572Z,97381.03
2017-09-20T20:18:22.717Z,97385.92
2017-09-20T20:20:50.245Z,97385.41
2017-09-20T20:23:17.119Z,97385.02
2017-09-20T20:25:44.779Z,97387.95
2017-09-20T20:28:12.544Z,97384.47
2017-09-20T20:30:39.132Z,97386.48
2017-09-20T20:33:05.677Z,97390.56
2017-09-20T20:35:32.353Z,97390.00
2017-09-20T20:37:59.044Z,97393.58
2017-09-20T20:40:27.066Z,97390.92
2017-09-20T20:42:53.905Z,97401.75
2017-09-20T20:49:48.039Z,97395.38
2017-09-20T20:52:23.832Z,97396.59
2017-09-20T20:54:51.017Z,97397.62
2017-09-20T20:57:17.794Z,97397.89
2017-09-20T20:59:44.601Z,97405.81
2017-09-20T21:04:45.350Z,97404.31
2017-09-20T21:07:12.975Z,97405.08
2017-09-20T21:09:39.680Z,97404.50
2017-09-20T21:15:00.519Z,97404.05
2017-09-20T21:17:27.268Z,97408.97
2017-09-20T21:19:53.883Z,97406.87
2017-09-20T21:22:20.627Z,97402.45
2017-09-20T21:24:48.112Z,97406.58
2017-09-20T21:27:17.603Z,97408.52
2017-09-20T21:29:44.262Z,97401.75
2017-09-20T21:32:13.722Z,97404.64
2017-09-20T21:34:41.215Z,97409.28
2017-09-20T21:37:08.042Z,97377.63
2017-09-20T21:51:54.796Z,97400.03
2017-09-20T21:54:22.284Z,97405.14
2017-09-20T21:56:52.839Z,97403.41
2017-09-20T21:59:19.866Z,97407.55
2017-09-20T22:01:46.383Z,97405.36
2017-09-20T22:04:12.936Z,97406.03
2017-09-20T22:06:39.412Z,97411.03
2017-09-20T22:09:05.951Z,97409.64
2017-09-20T22:11:33.452Z,97411.20
2017-09-20T22:14:00.227Z,97409.64
2017-09-20T22:16:45.469Z,97410.30
2017-09-20T22:31:06.144Z,97406.73
2017-09-20T22:33:34.606Z,97401.41
2017-09-20T22:36:02.100Z,97394.37
2017-09-20T22:53:55.610Z,97400.40
2017-09-20T22:56:23.472Z,97409.24
2017-09-20T22:58:50.244Z,97401.77
2017-09-20T23:01:17.769Z,97407.10
2017-09-20T23:03:44.664Z,97401.69
2017-09-20T23:06:21.579Z,97402.73
2017-09-20T23:08:48.343Z,97402.36
2017-09-20T23:11:15.184Z,97399.32
2017-09-20T23:13:41.736Z,97400.30
2017-09-20T23:16:11.948Z,97405.51
2017-09-20T23:18:40.935Z,97400.16
2017-09-20T23:21:09.532Z,97397.22
2017-09-20T23:23:38.177Z,97396.83
2017-09-20T23:26:04.867Z,97398.55
2017-09-20T23:28:32.304Z,97401.25
2017-09-20T23:30:58.889Z,97402.92
2017-09-20T23:33:25.548Z,97401.33
2017-09-20T23:35:52.327Z,97399.64
2017-09-20T23:38:19.796Z,97400.27
2017-09-20T23:40:47.116Z,97405.53
2017-09-20T23:43:13.750Z,97403.08
2017-09-20T23:45:40.627Z,97403.55
2017-09-20T23:48:07.373Z,97404.08
2017-09-20T23:50:33.863Z,97402.98
2017-09-20T23:53:01.372Z,97400.95
2017-09-20T23:58:23.212Z,97390.08
